Chamnesstown, Illinois
Current Conditions -  °F | °C
As of 12:07 PM on Thursday 27 Nov 2014 (Local Time) from KMDH Reporting Station
Overcast Overcast  
Wind Chill: 26°   Ceiling: 3000
Heat Index: 32°   Visibility: 7mi
Dew Point: 26°   Wind: 7mph
Humidity: 79%   Direction: 280°W
Pressure: 30.48"   Gusts: NA
Location:  37.907°N, 89.2086°W
Report Text: KMDH 271807Z AUTO 28006KT 7SM FEW025 OVC030 00/M03 A3048 RMK AO2 T00001033
Loading
Personal Weather Stations






























Interactive Weather Map New forecast layout! Learn more

10-Day Weather Forecast

Advertisements
Track Severe Weather on mobile